createdAt,value
2024-05-09T00:00:39.794Z,62.09
2024-05-09T00:03:25.890Z,62.03
2024-05-09T00:06:10.988Z,61.79
2024-05-09T00:08:55.887Z,61.93
2024-05-09T00:11:41.127Z,61.86
2024-05-09T00:14:26.124Z,61.88
2024-05-09T00:17:11.354Z,61.83
2024-05-09T00:19:56.297Z,61.86
2024-05-09T00:22:41.311Z,61.71
2024-05-09T00:25:26.298Z,61.61
2024-05-09T00:28:11.316Z,61.67
2024-05-09T00:30:56.455Z,62.30
2024-05-09T00:33:41.370Z,62.44
2024-05-09T00:36:26.288Z,62.11
2024-05-09T00:39:11.272Z,61.77
2024-05-09T00:41:56.944Z,62.19
2024-05-09T00:44:42.050Z,62.24
2024-05-09T00:47:27.367Z,62.08
2024-05-09T00:50:19.099Z,62.12
2024-05-09T00:53:08.224Z,62.51
2024-05-09T00:55:53.161Z,62.62
2024-05-09T00:58:38.199Z,62.74
2024-05-09T01:01:23.296Z,62.71
2024-05-09T01:04:08.443Z,62.42
2024-05-09T01:06:53.838Z,62.31
2024-05-09T01:09:38.821Z,62.57
2024-05-09T01:12:23.947Z,62.65
2024-05-09T01:15:08.963Z,62.33
2024-05-09T01:17:54.103Z,62.49
2024-05-09T01:20:42.885Z,62.34
2024-05-09T01:23:30.199Z,62.23
2024-05-09T01:26:15.559Z,62.12
2024-05-09T01:29:00.691Z,62.23
2024-05-09T01:31:45.559Z,62.35
2024-05-09T01:34:30.633Z,62.52
2024-05-09T01:37:15.705Z,62.37
2024-05-09T01:40:00.887Z,62.13
2024-05-09T01:42:45.683Z,62.87
2024-05-09T01:45:30.768Z,62.54
2024-05-09T01:48:16.072Z,62.56
2024-05-09T01:51:00.953Z,62.67
2024-05-09T01:53:45.876Z,62.76
2024-05-09T01:56:30.945Z,63.06
2024-05-09T01:59:15.818Z,63.04
2024-05-09T02:02:01.048Z,63.06
2024-05-09T02:04:46.543Z,62.66
2024-05-09T02:07:31.550Z,62.88
2024-05-09T02:10:23.341Z,63.14
2024-05-09T02:13:14.799Z,62.96
2024-05-09T02:15:59.961Z,63.27
2024-05-09T02:18:45.268Z,63.30
2024-05-09T02:21:30.234Z,63.30
2024-05-09T02:24:15.262Z,63.81
2024-05-09T02:27:00.283Z,63.88
2024-05-09T02:29:45.390Z,63.81
2024-05-09T02:32:30.703Z,63.28
2024-05-09T02:35:16.077Z,63.60
2024-05-09T02:38:01.073Z,63.62
2024-05-09T02:40:46.159Z,63.49
2024-05-09T02:43:31.082Z,63.44
2024-05-09T02:46:16.027Z,63.57
2024-05-09T02:49:01.341Z,63.58
2024-05-09T02:51:46.665Z,64.19
2024-05-09T02:54:31.755Z,65.01
2024-05-09T02:57:16.853Z,63.54
2024-05-09T03:00:01.836Z,63.57
2024-05-09T03:02:47.137Z,63.33
2024-05-09T03:05:32.228Z,63.46
2024-05-09T03:08:17.724Z,64.14
2024-05-09T03:11:02.632Z,63.83
2024-05-09T03:13:47.785Z,63.78
2024-05-09T03:16:32.902Z,63.78
2024-05-09T03:19:18.194Z,63.84
2024-05-09T03:22:03.636Z,64.12
2024-05-09T03:24:48.617Z,64.20
2024-05-09T03:27:33.594Z,64.51
2024-05-09T03:30:26.108Z,64.21
2024-05-09T03:33:21.092Z,64.14
2024-05-09T03:36:13.336Z,64.48
2024-05-09T03:38:58.440Z,64.73
2024-05-09T03:41:43.519Z,64.54
2024-05-09T03:44:28.477Z,64.52
2024-05-09T03:47:13.382Z,64.10
2024-05-09T03:49:58.365Z,63.95
2024-05-09T03:52:43.445Z,64.46
2024-05-09T03:55:28.484Z,64.67
2024-05-09T03:58:13.565Z,63.99
2024-05-09T04:00:58.501Z,65.16
2024-05-09T04:03:43.752Z,65.92
2024-05-09T04:06:28.889Z,65.11
2024-05-09T04:09:14.008Z,65.02
2024-05-09T04:11:59.110Z,64.91
2024-05-09T04:14:44.107Z,65.02
2024-05-09T04:17:29.559Z,64.92
2024-05-09T04:20:24.290Z,64.97
2024-05-09T04:23:18.418Z,64.95
2024-05-09T04:26:03.393Z,65.00
2024-05-09T04:28:48.302Z,64.44
2024-05-09T04:31:33.250Z,64.49
2024-05-09T04:34:18.333Z,65.18
2024-05-09T04:37:03.402Z,65.24
2024-05-09T04:39:48.303Z,64.57
2024-05-09T04:42:33.370Z,65.24
2024-05-09T04:45:18.366Z,65.26
2024-05-09T04:48:03.885Z,65.47
2024-05-09T04:50:49.448Z,65.09
2024-05-09T04:53:34.589Z,65.43
2024-05-09T04:56:19.742Z,65.64
2024-05-09T04:59:04.728Z,65.86
2024-05-09T05:01:49.877Z,65.86
2024-05-09T05:04:34.894Z,66.17
2024-05-09T05:07:19.901Z,65.99
2024-05-09T05:10:05.950Z,65.25
2024-05-09T05:12:51.234Z,66.00
2024-05-09T05:15:36.189Z,65.86
2024-05-09T05:18:21.381Z,65.88
2024-05-09T05:21:06.763Z,65.32
2024-05-09T05:23:51.819Z,64.69
2024-05-09T05:26:36.918Z,64.39
2024-05-09T05:29:22.017Z,64.64
2024-05-09T05:32:07.138Z,65.33
2024-05-09T05:34:52.513Z,64.64
2024-05-09T05:37:37.490Z,65.40
2024-05-09T05:40:28.680Z,64.30
2024-05-09T05:43:21.026Z,63.89
2024-05-09T05:46:06.199Z,63.29
2024-05-09T05:48:51.283Z,63.03
2024-05-09T05:51:36.377Z,62.07
2024-05-09T05:54:21.537Z,60.76
2024-05-09T05:57:06.604Z,60.12
2024-05-09T05:59:51.781Z,59.96
2024-05-09T06:02:36.982Z,59.64
2024-05-09T06:05:22.447Z,58.76
2024-05-09T06:08:07.991Z,58.53
2024-05-09T06:10:53.109Z,58.37
2024-05-09T06:13:38.123Z,58.35
2024-05-09T06:16:23.002Z,58.36
2024-05-09T06:19:08.214Z,58.35
2024-05-09T06:21:53.065Z,58.30
2024-05-09T06:24:38.206Z,57.40
2024-05-09T06:27:23.291Z,57.66
2024-05-09T06:30:12.161Z,57.68
2024-05-09T06:33:02.116Z,57.37
2024-05-09T06:35:47.169Z,55.16
2024-05-09T06:38:32.167Z,55.64
2024-05-09T06:41:17.228Z,54.36
2024-05-09T06:44:02.180Z,54.74
2024-05-09T06:46:47.356Z,56.32
2024-05-09T06:49:32.511Z,55.20
2024-05-09T06:52:17.430Z,55.91
2024-05-09T06:55:02.540Z,55.55
2024-05-09T06:57:47.449Z,56.04
2024-05-09T07:00:38.782Z,54.86
2024-05-09T07:03:26.318Z,53.35
2024-05-09T07:06:11.202Z,54.58
2024-05-09T07:08:56.070Z,55.07
2024-05-09T07:11:41.258Z,54.29
2024-05-09T07:14:26.300Z,54.48
2024-05-09T07:17:11.528Z,54.74
2024-05-09T07:19:56.369Z,51.82
2024-05-09T07:22:41.328Z,52.01
2024-05-09T07:25:26.214Z,53.37
2024-05-09T07:28:11.445Z,52.14
2024-05-09T07:30:56.590Z,53.45
2024-05-09T07:33:41.735Z,54.18
2024-05-09T07:36:26.713Z,55.66
2024-05-09T07:39:11.690Z,53.82
2024-05-09T07:41:56.913Z,51.30
2024-05-09T07:44:46.795Z,51.83
2024-05-09T07:48:57.463Z,50.32
2024-05-09T07:52:32.395Z,49.41
2024-05-09T07:53:45.820Z,49.79
2024-05-09T07:56:34.530Z,50.28
2024-05-09T07:59:19.959Z,49.91
2024-05-09T08:02:05.008Z,49.72
2024-05-09T08:04:50.536Z,50.02
2024-05-09T08:07:35.397Z,49.95
2024-05-09T08:10:24.532Z,49.85
2024-05-09T08:13:12.303Z,51.06
2024-05-09T08:15:57.678Z,50.15
2024-05-09T08:18:42.739Z,49.65
2024-05-09T08:21:27.775Z,49.78
2024-05-09T08:24:12.783Z,50.17
2024-05-09T08:26:57.690Z,49.06
2024-05-09T08:29:42.723Z,48.33
2024-05-09T08:32:27.844Z,49.30
2024-05-09T08:35:13.263Z,48.43
2024-05-09T08:37:58.598Z,47.46
2024-05-09T08:40:44.404Z,47.01
2024-05-09T08:43:29.757Z,47.00
2024-05-09T08:46:14.870Z,46.22
2024-05-09T08:48:59.996Z,46.59
2024-05-09T08:51:45.478Z,46.12
2024-05-09T08:54:30.557Z,46.12
2024-05-09T08:57:15.656Z,46.40
2024-05-09T09:00:00.700Z,46.17
2024-05-09T09:02:45.816Z,43.24
2024-05-09T09:05:30.939Z,44.86
2024-05-09T09:08:16.226Z,45.37
2024-05-09T09:11:01.347Z,43.79
2024-05-09T09:13:46.188Z,43.50
2024-05-09T09:16:31.355Z,44.18
2024-05-09T09:19:16.782Z,42.51
2024-05-09T09:22:02.173Z,41.95
2024-05-09T09:24:47.396Z,40.78
2024-05-09T09:27:32.417Z,39.91
2024-05-09T09:30:31.401Z,40.15
2024-05-09T09:33:21.793Z,43.40
2024-05-09T09:36:08.978Z,40.48
2024-05-09T09:38:55.815Z,40.94
2024-05-09T09:41:40.912Z,42.47
2024-05-09T09:44:25.818Z,41.28
2024-05-09T09:47:10.997Z,40.50
2024-05-09T09:49:55.917Z,40.28
2024-05-09T09:52:40.881Z,40.65
2024-05-09T09:55:25.982Z,39.29
2024-05-09T09:58:13.529Z,36.18
2024-05-09T10:00:59.727Z,39.03
2024-05-09T10:03:44.847Z,40.57
2024-05-09T10:06:31.399Z,40.55
2024-05-09T10:09:16.611Z,38.62
2024-05-09T10:12:01.589Z,39.45
2024-05-09T10:14:46.690Z,38.06
2024-05-09T10:17:31.814Z,39.57
2024-05-09T10:20:21.919Z,41.27
2024-05-09T10:23:10.281Z,40.01
2024-05-09T10:25:55.388Z,42.49
2024-05-09T10:28:40.331Z,40.54
2024-05-09T10:31:25.367Z,39.93
2024-05-09T10:34:10.436Z,39.64
2024-05-09T10:36:56.059Z,41.48
2024-05-09T10:39:41.388Z,39.85
2024-05-09T10:42:26.506Z,42.90
2024-05-09T10:45:11.461Z,41.61
2024-05-09T10:47:56.783Z,41.34
2024-05-09T10:50:42.179Z,41.45
2024-05-09T10:53:27.160Z,42.34
2024-05-09T10:56:12.513Z,41.27
2024-05-09T10:58:57.427Z,40.29
2024-05-09T11:01:42.668Z,41.30
2024-05-09T11:04:27.717Z,39.62
2024-05-09T11:07:12.794Z,40.81
2024-05-09T11:09:57.876Z,39.65
2024-05-09T11:12:42.762Z,39.91
2024-05-09T11:15:27.854Z,40.60
2024-05-09T11:18:13.243Z,39.41
2024-05-09T11:20:58.355Z,38.12
2024-05-09T11:23:43.410Z,39.30
2024-05-09T11:26:28.420Z,39.72
2024-05-09T11:29:15.663Z,40.16
2024-05-09T11:32:02.110Z,41.46
2024-05-09T11:34:46.983Z,39.43
2024-05-09T11:37:34.023Z,40.27
2024-05-09T11:40:25.576Z,37.15
2024-05-09T11:43:17.190Z,35.84
2024-05-09T11:46:02.420Z,37.85
2024-05-09T11:48:48.011Z,38.17
2024-05-09T11:51:33.354Z,38.10
2024-05-09T11:54:18.418Z,38.61
2024-05-09T11:57:03.433Z,38.64
2024-05-09T11:59:48.529Z,39.90
2024-05-09T12:02:33.897Z,38.69
2024-05-09T12:05:19.500Z,38.60
2024-05-09T12:08:04.719Z,38.87
2024-05-09T12:10:49.931Z,37.42
2024-05-09T12:13:35.255Z,37.48
2024-05-09T12:16:20.857Z,37.58
2024-05-09T12:19:06.343Z,36.72
2024-05-09T12:21:51.290Z,38.44
2024-05-09T12:24:36.327Z,38.86
2024-05-09T12:27:21.360Z,39.50
2024-05-09T12:30:08.948Z,40.12
2024-05-09T12:32:56.436Z,38.10
2024-05-09T12:35:44.282Z,38.57
2024-05-09T12:38:31.435Z,38.00
2024-05-09T12:41:16.583Z,39.79
2024-05-09T12:44:01.559Z,39.04
2024-05-09T12:46:46.490Z,39.63
2024-05-09T12:49:31.778Z,39.15
2024-05-09T12:52:17.226Z,39.18
2024-05-09T12:55:02.274Z,40.33
2024-05-09T12:57:47.311Z,39.22
2024-05-09T13:00:34.277Z,39.00
2024-05-09T13:03:20.175Z,38.51
2024-05-09T13:06:05.470Z,38.48
2024-05-09T13:08:50.533Z,40.08
2024-05-09T13:11:35.689Z,38.56
2024-05-09T13:14:20.626Z,38.87
2024-05-09T13:17:05.666Z,39.47
2024-05-09T13:19:50.646Z,37.40
2024-05-09T13:22:35.748Z,37.47
2024-05-09T13:25:20.833Z,38.99
2024-05-09T13:28:06.083Z,38.15
2024-05-09T13:30:51.590Z,38.21
2024-05-09T13:33:36.646Z,38.80
2024-05-09T13:36:21.579Z,39.20
2024-05-09T13:39:06.474Z,38.43
2024-05-09T13:41:51.667Z,39.28
2024-05-09T13:44:36.796Z,39.15
2024-05-09T13:47:21.721Z,38.76
2024-05-09T13:50:09.096Z,38.60
2024-05-09T13:52:56.535Z,37.66
2024-05-09T13:55:41.615Z,38.24
2024-05-09T13:58:26.843Z,38.41
2024-05-09T14:01:11.961Z,38.54
2024-05-09T14:03:57.127Z,39.39
2024-05-09T14:06:42.548Z,38.25
2024-05-09T14:09:27.578Z,37.44
2024-05-09T14:12:12.754Z,37.69
2024-05-09T14:14:57.723Z,36.84
2024-05-09T14:17:42.952Z,37.24
2024-05-09T14:20:31.453Z,37.04
2024-05-09T14:23:17.546Z,36.70
2024-05-09T14:26:02.667Z,36.46
2024-05-09T14:28:47.715Z,37.31
2024-05-09T14:31:34.841Z,36.74
2024-05-09T14:34:20.826Z,37.93
2024-05-09T14:37:06.069Z,38.36
2024-05-09T14:39:51.214Z,37.28
2024-05-09T14:42:36.177Z,37.01
2024-05-09T14:45:21.247Z,37.00
2024-05-09T14:48:06.410Z,33.95
2024-05-09T14:50:51.404Z,37.40
2024-05-09T14:53:36.393Z,34.35
2024-05-09T14:56:21.464Z,35.65
2024-05-09T14:59:06.701Z,36.84
2024-05-09T15:01:51.806Z,37.39
2024-05-09T15:04:36.992Z,37.35
2024-05-09T15:07:21.991Z,36.20
2024-05-09T15:10:13.508Z,35.07
2024-05-09T15:13:01.778Z,35.35
2024-05-09T15:15:46.810Z,35.99
2024-05-09T15:18:31.924Z,35.77
2024-05-09T15:21:17.410Z,36.52
2024-05-09T15:24:02.335Z,37.17
2024-05-09T15:26:47.426Z,38.08
2024-05-09T15:29:32.467Z,38.38
2024-05-09T15:32:17.444Z,35.51
2024-05-09T15:35:02.559Z,37.39
2024-05-09T15:37:47.467Z,34.45
2024-05-09T15:40:39.076Z,35.50
2024-05-09T15:43:25.887Z,35.70
2024-05-09T15:46:11.204Z,35.13
2024-05-09T15:48:56.292Z,37.03
2024-05-09T15:51:41.349Z,38.36
2024-05-09T15:54:26.343Z,38.73
2024-05-09T15:57:11.452Z,38.40
2024-05-09T15:59:56.380Z,39.74
2024-05-09T16:02:41.639Z,38.75
2024-05-09T16:05:27.211Z,40.66
2024-05-09T16:08:12.542Z,40.00
2024-05-09T16:10:57.875Z,38.86
2024-05-09T16:13:43.163Z,40.17
2024-05-09T16:16:28.376Z,40.21
2024-05-09T16:19:13.441Z,41.30
2024-05-09T16:21:59.116Z,42.64
2024-05-09T16:24:44.153Z,43.34
2024-05-09T16:27:29.161Z,43.83
2024-05-09T16:30:21.305Z,44.11
2024-05-09T16:33:13.134Z,44.41
2024-05-09T16:35:58.434Z,44.87
2024-05-09T16:38:43.561Z,45.29
2024-05-09T16:41:28.554Z,45.73
2024-05-09T16:44:13.632Z,46.05
2024-05-09T16:46:58.693Z,46.10
2024-05-09T16:49:43.556Z,46.22
2024-05-09T16:52:28.601Z,46.86
2024-05-09T16:55:13.837Z,47.20
2024-05-09T16:57:58.911Z,47.24
2024-05-09T17:00:44.686Z,46.80
2024-05-09T17:03:29.663Z,47.57
2024-05-09T17:06:14.617Z,48.02
2024-05-09T17:09:08.118Z,48.18
2024-05-09T17:11:56.814Z,47.84
2024-05-09T17:14:41.981Z,47.78
2024-05-09T17:17:27.226Z,47.66
2024-05-09T17:20:22.586Z,47.95
2024-05-09T17:23:14.542Z,48.33
2024-05-09T17:25:59.704Z,48.95
2024-05-09T17:28:44.701Z,48.37
2024-05-09T17:31:30.068Z,48.96
2024-05-09T17:34:15.506Z,48.45
2024-05-09T17:37:01.023Z,49.03
2024-05-09T17:39:46.216Z,49.38
2024-05-09T17:42:31.155Z,49.69
2024-05-09T17:45:16.185Z,50.04
2024-05-09T17:48:01.696Z,50.74
2024-05-09T17:50:47.236Z,50.42
2024-05-09T17:53:32.747Z,50.99
2024-05-09T17:56:17.879Z,50.68
2024-05-09T17:59:02.961Z,50.38
2024-05-09T18:01:48.072Z,51.07
2024-05-09T18:04:33.834Z,51.43
2024-05-09T18:07:19.170Z,52.09
2024-05-09T18:10:06.064Z,52.01
2024-05-09T18:12:52.803Z,51.45
2024-05-09T18:15:38.338Z,52.11
2024-05-09T18:18:24.006Z,52.01
2024-05-09T18:21:08.823Z,52.22
2024-05-09T18:23:55.497Z,51.80
2024-05-09T18:26:42.192Z,51.85
2024-05-09T18:29:27.182Z,51.83
2024-05-09T18:32:12.194Z,52.19
2024-05-09T18:34:57.326Z,52.51
2024-05-09T18:37:42.245Z,52.55
2024-05-09T18:40:33.122Z,52.83
2024-05-09T18:43:28.479Z,52.76
2024-05-09T18:46:16.544Z,52.60
2024-05-09T18:49:01.715Z,53.11
2024-05-09T18:51:46.646Z,52.99
2024-05-09T18:54:31.657Z,52.74
2024-05-09T18:57:16.677Z,53.22
2024-05-09T19:00:01.925Z,53.54
2024-05-09T19:02:48.681Z,52.93
2024-05-09T19:05:34.257Z,53.81
2024-05-09T19:08:19.528Z,53.62
2024-05-09T19:11:04.589Z,53.83
2024-05-09T19:13:49.702Z,54.19
2024-05-09T19:16:34.754Z,53.96
2024-05-09T19:19:20.002Z,55.00
2024-05-09T19:22:05.224Z,55.41
2024-05-09T19:24:50.253Z,54.85
2024-05-09T19:27:35.259Z,56.51
2024-05-09T19:30:29.283Z,56.55
2024-05-09T19:33:21.947Z,56.81
2024-05-09T19:36:06.929Z,56.31
2024-05-09T19:38:52.004Z,56.11
2024-05-09T19:41:37.176Z,56.42
2024-05-09T19:44:22.280Z,56.48
2024-05-09T19:47:07.321Z,56.22
2024-05-09T19:49:52.371Z,56.71
2024-05-09T19:52:37.362Z,56.98
2024-05-09T19:55:22.444Z,56.45
2024-05-09T19:58:08.183Z,56.73
2024-05-09T20:00:53.771Z,57.22
2024-05-09T20:03:38.742Z,56.63
2024-05-09T20:06:24.265Z,56.97
2024-05-09T20:09:09.179Z,57.37
2024-05-09T20:11:54.282Z,57.61
2024-05-09T20:14:39.214Z,57.65
2024-05-09T20:17:24.525Z,57.73
2024-05-09T20:20:16.750Z,57.64
2024-05-09T20:23:09.801Z,58.02
2024-05-09T20:25:55.074Z,57.40
2024-05-09T20:28:40.084Z,58.16
2024-05-09T20:31:25.490Z,57.87
2024-05-09T20:34:10.734Z,57.71
2024-05-09T20:36:55.934Z,57.71
2024-05-09T20:39:40.987Z,57.67
2024-05-09T20:42:25.961Z,57.77
2024-05-09T20:45:10.921Z,57.81
2024-05-09T20:47:56.266Z,57.63
2024-05-09T20:50:42.678Z,57.51
2024-05-09T20:53:27.944Z,57.59
2024-05-09T20:56:13.026Z,57.82
2024-05-09T20:58:58.295Z,58.10
2024-05-09T21:01:45.637Z,57.75
2024-05-09T21:04:32.906Z,57.71
2024-05-09T21:07:18.375Z,57.71
2024-05-09T21:10:04.712Z,58.02
2024-05-09T21:12:53.631Z,57.95
2024-05-09T21:15:38.830Z,57.98
2024-05-09T21:18:23.762Z,58.66
2024-05-09T21:21:08.945Z,58.57
2024-05-09T21:23:54.019Z,58.56
2024-05-09T21:26:38.946Z,58.79
2024-05-09T21:29:23.878Z,59.66
2024-05-09T21:32:09.056Z,59.52
2024-05-09T21:34:54.148Z,59.41
2024-05-09T21:37:39.119Z,59.33
2024-05-09T21:40:31.648Z,59.17
2024-05-09T21:43:20.169Z,59.15
2024-05-09T21:46:05.852Z,59.12
2024-05-09T21:48:50.830Z,59.48
2024-05-09T21:51:35.897Z,58.91
2024-05-09T21:54:20.862Z,59.30
2024-05-09T21:57:06.030Z,59.55
2024-05-09T21:59:50.959Z,59.40
2024-05-09T22:02:36.216Z,59.47
2024-05-09T22:05:21.213Z,59.68
2024-05-09T22:08:06.267Z,59.91
2024-05-09T22:10:51.534Z,60.09
2024-05-09T22:13:36.751Z,60.20
2024-05-09T22:16:22.057Z,60.30
2024-05-09T22:19:07.439Z,60.31
2024-05-09T22:21:52.489Z,60.26
2024-05-09T22:24:37.632Z,60.57
2024-05-09T22:27:22.493Z,60.49
2024-05-09T22:30:11.770Z,60.88
2024-05-09T22:33:00.203Z,60.93
2024-05-09T22:35:45.168Z,61.01
2024-05-09T22:38:30.153Z,60.88
2024-05-09T22:41:15.170Z,60.64
2024-05-09T22:44:00.310Z,61.17
2024-05-09T22:46:45.431Z,60.77
2024-05-09T22:49:30.444Z,60.93
2024-05-09T22:52:15.313Z,61.21
2024-05-09T22:55:00.263Z,60.62
2024-05-09T22:57:45.347Z,61.02
2024-05-09T23:00:32.339Z,61.14
2024-05-09T23:03:18.336Z,61.34
2024-05-09T23:06:03.294Z,61.54
2024-05-09T23:08:48.286Z,61.52
2024-05-09T23:11:33.545Z,61.10
2024-05-09T23:14:18.583Z,61.45
2024-05-09T23:17:03.539Z,61.30
2024-05-09T23:19:48.474Z,60.74
2024-05-09T23:22:33.606Z,61.54
2024-05-09T23:25:18.774Z,60.74
2024-05-09T23:28:03.782Z,61.03
2024-05-09T23:30:49.454Z,61.05
2024-05-09T23:33:34.620Z,61.11
2024-05-09T23:36:19.956Z,60.67
2024-05-09T23:39:05.013Z,60.19
2024-05-09T23:41:50.097Z,59.97
2024-05-09T23:44:35.256Z,59.58
2024-05-09T23:47:20.359Z,59.35
2024-05-09T23:50:08.947Z,59.61
2024-05-09T23:52:59.101Z,59.28
2024-05-09T23:55:44.136Z,58.84
2024-05-09T23:58:29.128Z,59.07
